createdAt,value
2022-10-02T05:13:33.061Z,100.00
2022-10-02T05:16:31.730Z,100.00
2022-10-02T05:18:59.775Z,100.00
2022-10-02T05:21:48.640Z,100.00
2022-10-02T05:24:22.753Z,100.00
2022-10-02T05:27:15.770Z,100.00
2022-10-02T05:29:49.574Z,100.00
2022-10-02T05:32:40.543Z,100.00
2022-10-02T05:35:11.114Z,100.00
2022-10-02T05:37:42.057Z,100.00
2022-10-02T05:40:23.450Z,100.00
2022-10-02T05:42:57.230Z,100.00
2022-10-02T05:45:32.613Z,100.00
2022-10-02T05:48:12.788Z,100.00
2022-10-02T05:50:40.643Z,100.00
2022-10-02T05:53:20.962Z,100.00
2022-10-02T05:55:52.911Z,100.00
2022-10-02T05:58:40.795Z,100.00
2022-10-02T06:01:18.034Z,100.00
2022-10-02T06:03:53.402Z,100.00
2022-10-02T06:06:34.561Z,100.00
2022-10-02T06:09:06.102Z,100.00
2022-10-02T06:11:41.608Z,99.23
2022-10-02T06:14:14.385Z,97.76
2022-10-02T06:16:49.253Z,100.00
2022-10-02T06:19:30.444Z,100.00
2022-10-02T06:22:12.537Z,100.00
2022-10-02T06:24:44.316Z,100.00
2022-10-02T06:27:30.041Z,100.00
2022-10-02T06:30:06.370Z,100.00
2022-10-02T06:32:44.646Z,100.00
2022-10-02T06:35:16.474Z,100.00
2022-10-02T06:38:11.436Z,100.00
2022-10-02T06:40:48.285Z,100.00
2022-10-02T06:43:22.332Z,100.00
2022-10-02T06:46:02.244Z,100.00
2022-10-02T06:48:46.300Z,100.00
2022-10-02T06:51:35.492Z,100.00
2022-10-02T06:54:12.054Z,100.00
2022-10-02T06:56:39.866Z,100.00
2022-10-02T06:59:26.223Z,100.00
2022-10-02T07:02:32.773Z,100.00
2022-10-02T07:05:21.981Z,100.00
2022-10-02T07:08:12.086Z,100.00
2022-10-02T07:10:51.636Z,100.00
2022-10-02T07:13:40.925Z,100.00
2022-10-02T07:16:16.124Z,100.00
2022-10-02T07:19:05.910Z,100.00
2022-10-02T07:21:58.682Z,100.00
2022-10-02T07:24:52.883Z,100.00
2022-10-02T07:27:23.332Z,100.00
2022-10-02T07:30:12.349Z,100.00
2022-10-02T07:32:51.632Z,100.00
2022-10-02T07:35:25.415Z,98.70
2022-10-02T07:38:49.622Z,99.09
2022-10-02T07:41:29.225Z,100.00
2022-10-02T07:44:43.453Z,99.00
2022-10-02T07:47:30.544Z,90.44
2022-10-02T07:50:12.472Z,89.05
2022-10-02T07:52:46.772Z,85.52
2022-10-02T07:55:21.250Z,85.16
2022-10-02T07:57:52.487Z,78.16
2022-10-02T08:00:23.088Z,75.45
2022-10-02T08:02:57.295Z,75.73
2022-10-02T08:05:33.440Z,72.43
2022-10-02T08:08:23.932Z,72.04
2022-10-02T08:11:02.837Z,71.11
2022-10-02T08:13:33.041Z,73.86
2022-10-02T08:16:00.910Z,67.12
2022-10-02T08:18:41.609Z,64.65
2022-10-02T08:21:15.694Z,68.33
2022-10-02T08:23:52.395Z,64.39
2022-10-02T08:26:36.011Z,66.65
2022-10-02T08:29:24.525Z,66.31
2022-10-02T08:31:53.173Z,65.42
2022-10-02T08:34:22.316Z,64.32
2022-10-02T08:37:25.765Z,65.57
2022-10-02T08:39:56.287Z,65.03
2022-10-02T08:42:45.588Z,64.87
2022-10-02T08:45:19.373Z,64.28
2022-10-02T08:48:15.998Z,59.86
2022-10-02T08:51:02.117Z,60.59
2022-10-02T08:53:41.983Z,60.52
2022-10-02T08:56:17.729Z,61.39
2022-10-02T08:59:12.627Z,64.54
2022-10-02T09:02:11.343Z,56.26
2022-10-02T09:04:45.046Z,50.61
2022-10-02T09:07:55.003Z,53.98
2022-10-02T09:11:04.185Z,53.02
2022-10-02T09:13:51.915Z,51.94
2022-10-02T09:16:46.024Z,50.93
2022-10-02T09:19:22.716Z,51.10
2022-10-02T09:22:20.845Z,52.45
2022-10-02T09:24:56.610Z,52.77
2022-10-02T09:27:46.249Z,52.31
2022-10-02T09:30:27.113Z,51.15
2022-10-02T09:33:22.250Z,50.54
2022-10-02T09:36:08.503Z,49.34
2022-10-02T09:38:52.802Z,51.20
2022-10-02T09:41:51.006Z,51.78
2022-10-02T09:44:41.483Z,48.69
2022-10-02T09:47:21.535Z,52.20
2022-10-02T09:50:11.602Z,53.89
2022-10-02T09:53:10.477Z,54.56
2022-10-02T09:55:56.838Z,54.19
2022-10-02T09:58:44.209Z,51.60
2022-10-02T10:01:14.738Z,51.50
2022-10-02T10:04:12.920Z,50.43
2022-10-02T10:06:46.722Z,54.98
2022-10-02T10:09:36.773Z,54.04
2022-10-02T10:12:25.749Z,58.25
2022-10-02T10:14:59.509Z,60.05
2022-10-02T10:17:43.874Z,59.90
2022-10-02T10:20:14.687Z,58.19
2022-10-02T10:23:01.653Z,57.90
2022-10-02T10:25:50.402Z,63.77
2022-10-02T10:28:39.554Z,63.88
2022-10-02T10:31:28.264Z,65.23
2022-10-02T10:34:08.011Z,59.14
2022-10-02T10:37:28.074Z,57.58
2022-10-02T10:40:12.384Z,57.56
2022-10-02T10:43:07.619Z,59.06
2022-10-02T10:45:54.336Z,57.39
2022-10-02T10:48:35.167Z,58.47
2022-10-02T10:51:16.559Z,59.92
2022-10-02T10:54:04.951Z,59.31
2022-10-02T10:56:47.876Z,58.43
2022-10-02T10:59:54.765Z,57.73
2022-10-02T11:02:54.865Z,57.19
2022-10-02T11:06:03.777Z,54.45
2022-10-02T11:08:50.007Z,58.00
2022-10-02T11:11:23.509Z,58.01
2022-10-02T11:14:26.883Z,56.25
2022-10-02T11:17:24.511Z,55.92
2022-10-02T11:20:30.418Z,57.12
2022-10-02T11:23:22.401Z,57.80
2022-10-02T11:26:21.624Z,57.22
2022-10-02T11:29:34.846Z,56.36
2022-10-02T11:32:10.196Z,57.23
2022-10-02T11:34:43.973Z,57.82
2022-10-02T11:37:35.551Z,58.07
2022-10-02T11:40:31.157Z,58.58
2022-10-02T11:43:13.838Z,58.28
2022-10-02T11:46:03.500Z,58.21
2022-10-02T11:49:20.483Z,57.66
2022-10-02T11:51:52.138Z,56.52
2022-10-02T11:54:36.393Z,55.83
2022-10-02T11:57:33.041Z,56.60
2022-10-02T12:00:34.117Z,55.75
2022-10-02T12:03:24.902Z,55.98
2022-10-02T12:06:00.004Z,57.62
2022-10-02T12:08:42.954Z,57.24
2022-10-02T12:11:32.624Z,57.75
2022-10-02T12:14:05.597Z,56.84
2022-10-02T12:16:42.101Z,59.63
2022-10-02T12:19:15.664Z,58.95
2022-10-02T12:22:21.186Z,59.41
2022-10-02T12:25:34.516Z,59.54
2022-10-02T12:28:27.043Z,59.48
2022-10-02T12:31:14.474Z,59.21
2022-10-02T12:34:01.434Z,55.72
2022-10-02T12:37:06.243Z,58.11
2022-10-02T12:39:43.401Z,58.36
2022-10-02T12:42:21.481Z,58.55
2022-10-02T12:45:11.582Z,59.58
2022-10-02T12:48:04.142Z,58.80
2022-10-02T12:50:34.848Z,56.47
2022-10-02T12:53:21.387Z,57.69
2022-10-02T12:56:04.140Z,57.56
2022-10-02T12:58:46.956Z,56.82
2022-10-02T13:01:46.102Z,59.07
2022-10-02T13:04:40.524Z,58.43
2022-10-02T13:07:20.350Z,57.38
2022-10-02T13:10:26.669Z,56.67
2022-10-02T13:13:21.168Z,57.89
2022-10-02T13:16:13.396Z,58.98
2022-10-02T13:19:08.883Z,58.37
2022-10-02T13:21:48.604Z,57.39
2022-10-02T13:24:31.452Z,56.27
2022-10-02T13:27:22.435Z,55.60
2022-10-02T13:30:06.182Z,56.82
2022-10-02T13:33:10.837Z,56.24
2022-10-02T13:36:15.208Z,57.78
2022-10-02T13:39:07.513Z,57.76
2022-10-02T13:41:53.174Z,57.80
2022-10-02T13:44:49.847Z,56.45
2022-10-02T13:47:27.280Z,56.85
2022-10-02T13:49:57.825Z,57.74
2022-10-02T13:52:53.289Z,57.40
2022-10-02T13:55:20.937Z,57.58
2022-10-02T13:58:05.595Z,56.66
2022-10-02T14:00:52.196Z,55.89
2022-10-02T14:03:28.645Z,56.79
2022-10-02T14:05:59.007Z,57.73
2022-10-02T14:08:48.098Z,58.38
2022-10-02T14:11:15.880Z,58.60
2022-10-02T14:13:52.298Z,58.75
2022-10-02T14:16:29.271Z,59.13
2022-10-02T14:19:36.390Z,58.98
2022-10-02T14:22:51.860Z,58.78
2022-10-02T14:25:53.581Z,58.21
2022-10-02T14:28:30.391Z,59.23
2022-10-02T14:31:01.057Z,60.08
2022-10-02T14:33:28.689Z,59.34
2022-10-02T14:36:13.525Z,58.55
2022-10-02T14:38:49.485Z,59.10
2022-10-02T14:41:36.281Z,60.07
2022-10-02T14:44:07.438Z,60.99
2022-10-02T14:46:50.168Z,61.08
2022-10-02T14:49:39.741Z,62.63
2022-10-02T14:52:49.264Z,63.22
2022-10-02T14:55:23.167Z,64.05
2022-10-02T14:57:56.600Z,66.11
2022-10-02T15:00:27.511Z,67.01
2022-10-02T15:02:58.152Z,67.22
2022-10-02T15:05:58.960Z,68.63
2022-10-02T15:08:29.074Z,69.01
2022-10-02T15:10:57.381Z,69.95
2022-10-02T15:13:44.444Z,69.74
2022-10-02T15:16:39.362Z,69.32
2022-10-02T15:19:24.650Z,68.27
2022-10-02T15:22:20.396Z,70.57
2022-10-02T15:24:56.140Z,69.94
2022-10-02T15:27:24.802Z,69.95
2022-10-02T15:29:56.741Z,71.72
2022-10-02T15:32:43.564Z,71.84
2022-10-02T15:35:31.156Z,71.62
2022-10-02T15:38:14.022Z,71.76
2022-10-02T15:40:55.808Z,71.97
2022-10-02T15:43:32.117Z,70.02
2022-10-02T15:46:19.342Z,70.55
2022-10-02T15:48:59.350Z,71.56
2022-10-02T15:52:01.075Z,74.61
2022-10-02T15:54:53.691Z,77.73
2022-10-02T15:57:28.284Z,85.41
2022-10-02T16:00:14.896Z,90.93
2022-10-02T16:03:05.242Z,94.59
2022-10-02T16:06:08.713Z,97.00
2022-10-02T16:08:45.393Z,100.00
2022-10-02T16:11:42.080Z,100.00
2022-10-02T16:14:15.041Z,100.00
2022-10-02T16:16:50.509Z,100.00
2022-10-02T16:19:55.080Z,100.00
2022-10-02T16:22:28.439Z,100.00
2022-10-02T16:25:19.674Z,100.00
2022-10-02T16:27:50.373Z,100.00
2022-10-02T16:30:22.218Z,100.00
2022-10-02T16:33:10.664Z,100.00
2022-10-02T16:36:10.743Z,100.00
2022-10-02T16:39:16.552Z,100.00
2022-10-02T16:42:02.055Z,100.00
2022-10-02T16:44:55.689Z,100.00
2022-10-02T16:47:43.733Z,100.00
2022-10-02T16:50:17.348Z,100.00
2022-10-02T16:53:05.874Z,100.00
2022-10-02T16:55:35.960Z,100.00
2022-10-02T16:58:24.495Z,100.00
2022-10-02T17:01:07.374Z,100.00
2022-10-02T17:03:54.644Z,100.00
2022-10-02T17:06:32.671Z,100.00
